CFE9760 LEMG-EGTE
Flight info
| Callsign | CFE9760 |
|---|---|
| Flight time | 2h 7m |
| Altitude | 40000 |
| Route | BLN DCT MORAL DCT BEXID DCT VTB N865 DELOG DCT NOVAN DCT ERCOZ DCT SKESO P16 FIMCA N22 BHD |
| Aircraft | E190/M-SDE3GILORVW/S |
Departure
| Time | 2026-05-06 08:46 |
|---|---|
| Airport | Málaga-Costa del Sol Airport (LEMG) |
Arrival
| Time | 2026-05-06 10:53 |
|---|---|
| Airport | Exeter International Airport (EGTE) |
| Time | Latitude | Longitude | Altitude | Speed | Heading |
|---|---|---|---|---|---|
| 2026-05-06 08:24 | 36.68143 | -4.49108 | 58 ft | 0 kts | 27° |
| 2026-05-06 08:42 | 36.68144 | -4.49108 | 59 ft | 0 kts | 27° |
| 2026-05-06 08:42 | 36.68164 | -4.49095 | 59 ft | 6 kts | 26° |
| 2026-05-06 08:42 | 36.68179 | -4.49028 | 59 ft | 12 kts | 119° |
| 2026-05-06 08:43 | 36.68127 | -4.48900 | 59 ft | 18 kts | 118° |
| 2026-05-06 08:43 | 36.68066 | -4.48760 | 59 ft | 19 kts | 118° |
| 2026-05-06 08:43 | 36.68003 | -4.48610 | 59 ft | 20 kts | 116° |
| 2026-05-06 08:43 | 36.67926 | -4.48423 | 59 ft | 27 kts | 117° |
| 2026-05-06 08:44 | 36.67836 | -4.48206 | 59 ft | 28 kts | 118° |
| 2026-05-06 08:44 | 36.67742 | -4.47983 | 59 ft | 29 kts | 118° |
| 2026-05-06 08:44 | 36.67707 | -4.47789 | 59 ft | 15 kts | 56° |
| 2026-05-06 08:44 | 36.67772 | -4.47694 | 59 ft | 14 kts | 8° |
| 2026-05-06 08:45 | 36.67841 | -4.47776 | 59 ft | 17 kts | 297° |
| 2026-05-06 08:45 | 36.68004 | -4.48165 | 59 ft | 86 kts | 298° |
| 2026-05-06 08:45 | 36.68380 | -4.49044 | 62 ft | 143 kts | 296° |
| 2026-05-06 08:45 | 36.68901 | -4.50244 | 391 ft | 165 kts | 297° |
| 2026-05-06 08:46 | 36.69594 | -4.51366 | 1070 ft | 169 kts | 317° |
| 2026-05-06 08:46 | 36.70466 | -4.52385 | 1699 ft | 182 kts | 315° |
| 2026-05-06 08:46 | 36.71342 | -4.53579 | 2372 ft | 195 kts | 315° |
| 2026-05-06 08:46 | 36.72302 | -4.54861 | 2895 ft | 207 kts | 314° |
| 2026-05-06 08:47 | 36.73291 | -4.56257 | 3164 ft | 228 kts | 312° |
| 2026-05-06 08:47 | 36.74336 | -4.57782 | 4016 ft | 237 kts | 311° |
| 2026-05-06 08:47 | 36.75480 | -4.59174 | 5091 ft | 232 kts | 334° |
| 2026-05-06 08:47 | 36.76967 | -4.59833 | 6125 ft | 229 kts | 344° |
| 2026-05-06 08:48 | 36.78491 | -4.60397 | 7086 ft | 229 kts | 344° |
| 2026-05-06 08:48 | 36.80004 | -4.60953 | 7907 ft | 233 kts | 343° |
| 2026-05-06 08:48 | 36.81609 | -4.61024 | 8638 ft | 240 kts | 18° |
| 2026-05-06 08:48 | 36.83089 | -4.59875 | 8964 ft | 267 kts | 41° |
| 2026-05-06 08:49 | 36.84545 | -4.58238 | 9348 ft | 290 kts | 41° |
| 2026-05-06 08:49 | 36.86077 | -4.56536 | 10014 ft | 300 kts | 41° |
| 2026-05-06 08:49 | 36.87611 | -4.54839 | 11147 ft | 292 kts | 40° |
| 2026-05-06 08:49 | 36.89082 | -4.53216 | 12200 ft | 285 kts | 40° |
| 2026-05-06 08:50 | 36.90564 | -4.51582 | 13072 ft | 285 kts | 40° |
| 2026-05-06 08:50 | 36.92082 | -4.49909 | 13809 ft | 290 kts | 40° |
| 2026-05-06 08:50 | 36.93599 | -4.48236 | 14504 ft | 296 kts | 40° |
| 2026-05-06 08:50 | 36.95144 | -4.46532 | 15197 ft | 301 kts | 40° |
| 2026-05-06 08:51 | 36.96721 | -4.44791 | 15906 ft | 306 kts | 39° |
| 2026-05-06 08:51 | 36.98371 | -4.43075 | 16584 ft | 309 kts | 32° |
| 2026-05-06 08:51 | 37.00261 | -4.41556 | 16700 ft | 335 kts | 30° |
| 2026-05-06 08:51 | 37.02286 | -4.39954 | 16832 ft | 359 kts | 30° |
| 2026-05-06 08:52 | 37.04440 | -4.38243 | 17322 ft | 370 kts | 30° |
| 2026-05-06 08:52 | 37.06605 | -4.36523 | 18042 ft | 373 kts | 30° |
| 2026-05-06 08:52 | 37.08799 | -4.34778 | 18818 ft | 375 kts | 30° |
| 2026-05-06 08:52 | 37.11001 | -4.33026 | 19518 ft | 378 kts | 30° |
| 2026-05-06 08:53 | 37.13244 | -4.31240 | 20145 ft | 383 kts | 30° |
| 2026-05-06 08:53 | 37.15521 | -4.29425 | 20750 ft | 389 kts | 30° |
| 2026-05-06 08:53 | 37.17830 | -4.27584 | 21381 ft | 393 kts | 30° |
| 2026-05-06 08:53 | 37.20162 | -4.25723 | 22005 ft | 398 kts | 29° |
| 2026-05-06 08:54 | 37.22486 | -4.23867 | 22596 ft | 402 kts | 29° |
| 2026-05-06 08:54 | 37.24850 | -4.21978 | 23189 ft | 406 kts | 29° |
| 2026-05-06 08:54 | 37.27237 | -4.20069 | 23779 ft | 410 kts | 29° |
| 2026-05-06 08:54 | 37.29667 | -4.18124 | 24358 ft | 414 kts | 29° |
| 2026-05-06 08:55 | 37.32077 | -4.16193 | 24920 ft | 418 kts | 29° |
| 2026-05-06 08:55 | 37.34540 | -4.14219 | 25462 ft | 423 kts | 29° |
| 2026-05-06 08:55 | 37.37048 | -4.12207 | 25974 ft | 427 kts | 28° |
| 2026-05-06 08:55 | 37.39542 | -4.10204 | 26484 ft | 431 kts | 29° |
| 2026-05-06 08:56 | 37.42105 | -4.08145 | 27005 ft | 435 kts | 28° |
| 2026-05-06 08:56 | 37.44662 | -4.06088 | 27492 ft | 440 kts | 28° |
| 2026-05-06 08:56 | 37.47245 | -4.04003 | 27971 ft | 441 kts | 29° |
| 2026-05-06 08:56 | 37.49828 | -4.01915 | 28335 ft | 445 kts | 28° |
| 2026-05-06 08:57 | 37.52461 | -3.99790 | 28691 ft | 448 kts | 28° |
| 2026-05-06 08:57 | 37.55094 | -3.97665 | 29044 ft | 452 kts | 28° |
| 2026-05-06 08:57 | 37.57729 | -3.95537 | 29395 ft | 455 kts | 28° |
| 2026-05-06 08:57 | 37.60412 | -3.93369 | 29770 ft | 457 kts | 28° |
| 2026-05-06 08:58 | 37.63090 | -3.91203 | 30134 ft | 460 kts | 28° |
| 2026-05-06 08:58 | 37.65796 | -3.89011 | 30505 ft | 462 kts | 28° |
| 2026-05-06 08:58 | 37.68506 | -3.86815 | 30861 ft | 465 kts | 28° |
| 2026-05-06 08:58 | 37.71251 | -3.84589 | 31195 ft | 468 kts | 28° |
| 2026-05-06 08:59 | 37.74012 | -3.82348 | 31543 ft | 470 kts | 28° |
| 2026-05-06 08:59 | 37.76740 | -3.80131 | 31871 ft | 473 kts | 28° |
| 2026-05-06 08:59 | 37.79507 | -3.77880 | 32275 ft | 473 kts | 28° |
| 2026-05-06 08:59 | 37.82317 | -3.75643 | 32697 ft | 472 kts | 25° |
| 2026-05-06 09:00 | 37.85234 | -3.73881 | 33096 ft | 465 kts | 15° |
| 2026-05-06 09:00 | 37.88319 | -3.72656 | 33522 ft | 460 kts | 9° |
| 2026-05-06 09:00 | 37.91405 | -3.71555 | 33960 ft | 460 kts | 10° |
| 2026-05-06 09:00 | 37.94491 | -3.70400 | 34394 ft | 459 kts | 11° |
| 2026-05-06 09:01 | 37.97533 | -3.69246 | 34750 ft | 459 kts | 10° |
| 2026-05-06 09:01 | 38.00589 | -3.68081 | 35096 ft | 458 kts | 10° |
| 2026-05-06 09:01 | 38.03667 | -3.66907 | 35462 ft | 457 kts | 10° |
| 2026-05-06 09:01 | 38.06721 | -3.65740 | 35803 ft | 456 kts | 10° |
| 2026-05-06 09:02 | 38.09756 | -3.64579 | 36135 ft | 454 kts | 10° |
| 2026-05-06 09:02 | 38.12747 | -3.63434 | 36435 ft | 454 kts | 10° |
| 2026-05-06 09:02 | 38.15727 | -3.62283 | 36783 ft | 454 kts | 12° |
| 2026-05-06 09:02 | 38.18760 | -3.61051 | 37059 ft | 455 kts | 12° |
| 2026-05-06 09:03 | 38.21748 | -3.59806 | 37299 ft | 456 kts | 12° |
| 2026-05-06 09:03 | 38.24791 | -3.58488 | 37559 ft | 457 kts | 13° |
| 2026-05-06 09:03 | 38.27782 | -3.57144 | 37828 ft | 457 kts | 14° |
| 2026-05-06 09:03 | 38.30761 | -3.55767 | 37996 ft | 451 kts | 14° |
| 2026-05-06 09:04 | 38.33707 | -3.54402 | 38061 ft | 452 kts | 14° |
| 2026-05-06 09:04 | 38.39654 | -3.51642 | 38182 ft | 455 kts | 13° |
| 2026-05-06 09:05 | 38.45771 | -3.50167 | 38548 ft | 444 kts | 353° |
| 2026-05-06 09:05 | 38.48821 | -3.50442 | 38903 ft | 434 kts | 342° |
| 2026-05-06 09:05 | 38.51738 | -3.51375 | 39300 ft | 422 kts | 333° |
| 2026-05-06 09:05 | 38.54577 | -3.52413 | 39637 ft | 428 kts | 342° |
| 2026-05-06 09:06 | 38.57544 | -3.52825 | 39905 ft | 434 kts | 352° |
| 2026-05-06 09:06 | 38.63678 | -3.53007 | 39968 ft | 446 kts | 352° |
| 2026-05-06 09:07 | 38.69933 | -3.53213 | 39967 ft | 458 kts | 352° |
| 2026-05-06 09:07 | 38.76379 | -3.53427 | 39980 ft | 465 kts | 352° |
| 2026-05-06 09:08 | 38.82876 | -3.53643 | 39970 ft | 464 kts | 352° |
| 2026-05-06 09:08 | 38.89371 | -3.53860 | 39970 ft | 463 kts | 352° |
| 2026-05-06 09:09 | 38.95794 | -3.54075 | 39976 ft | 463 kts | 352° |
| 2026-05-06 09:09 | 39.02260 | -3.54004 | 39983 ft | 468 kts | 359° |
| 2026-05-06 09:10 | 39.08791 | -3.53346 | 39973 ft | 468 kts | 359° |
| 2026-05-06 09:10 | 39.15306 | -3.52696 | 39968 ft | 467 kts | 359° |
| 2026-05-06 09:11 | 39.21766 | -3.52052 | 39966 ft | 468 kts | 359° |
| 2026-05-06 09:11 | 39.28267 | -3.51403 | 39960 ft | 467 kts | 359° |
| 2026-05-06 09:12 | 39.34740 | -3.50755 | 39965 ft | 466 kts | 359° |
| 2026-05-06 09:12 | 39.41247 | -3.50102 | 39971 ft | 465 kts | 359° |
| 2026-05-06 09:13 | 39.47680 | -3.49457 | 39966 ft | 467 kts | 359° |
| 2026-05-06 09:13 | 39.54181 | -3.48802 | 39963 ft | 465 kts | 359° |
| 2026-05-06 09:14 | 39.60650 | -3.48152 | 39963 ft | 465 kts | 359° |
| 2026-05-06 09:14 | 39.67077 | -3.47509 | 39963 ft | 466 kts | 359° |
| 2026-05-06 09:15 | 39.73548 | -3.46859 | 39966 ft | 465 kts | 359° |
| 2026-05-06 09:15 | 39.79988 | -3.46583 | 39970 ft | 458 kts | 349° |
| 2026-05-06 09:16 | 39.86391 | -3.47238 | 39965 ft | 457 kts | 350° |
| 2026-05-06 09:16 | 39.92750 | -3.47880 | 39975 ft | 458 kts | 350° |
| 2026-05-06 09:17 | 39.99093 | -3.48521 | 39985 ft | 458 kts | 350° |
| 2026-05-06 09:17 | 40.05484 | -3.49168 | 39980 ft | 458 kts | 350° |
| 2026-05-06 09:18 | 40.11806 | -3.49809 | 39985 ft | 458 kts | 350° |
| 2026-05-06 09:18 | 40.18145 | -3.50453 | 39990 ft | 457 kts | 350° |
| 2026-05-06 09:19 | 40.24463 | -3.51096 | 39995 ft | 458 kts | 350° |
| 2026-05-06 09:19 | 40.30808 | -3.51743 | 39995 ft | 458 kts | 350° |
| 2026-05-06 09:20 | 40.37197 | -3.52396 | 39990 ft | 457 kts | 350° |
| 2026-05-06 09:20 | 40.43465 | -3.53038 | 39994 ft | 457 kts | 350° |
| 2026-05-06 09:21 | 40.49806 | -3.53688 | 39995 ft | 458 kts | 350° |
| 2026-05-06 09:21 | 40.56200 | -3.54345 | 40001 ft | 458 kts | 350° |
| 2026-05-06 09:22 | 40.62539 | -3.54998 | 39996 ft | 457 kts | 350° |
| 2026-05-06 09:22 | 40.68880 | -3.55652 | 39998 ft | 457 kts | 350° |
| 2026-05-06 09:23 | 40.75259 | -3.56311 | 40002 ft | 457 kts | 350° |
| 2026-05-06 09:23 | 40.81609 | -3.56969 | 39996 ft | 458 kts | 350° |
| 2026-05-06 09:24 | 40.87935 | -3.57625 | 40001 ft | 458 kts | 350° |
| 2026-05-06 09:24 | 40.94302 | -3.58287 | 39990 ft | 458 kts | 351° |
| 2026-05-06 09:25 | 41.00635 | -3.58947 | 39988 ft | 458 kts | 351° |
| 2026-05-06 09:25 | 41.06999 | -3.59611 | 39982 ft | 457 kts | 351° |
| 2026-05-06 09:26 | 41.13237 | -3.60263 | 39966 ft | 457 kts | 351° |
| 2026-05-06 09:26 | 41.19503 | -3.60591 | 39972 ft | 459 kts | 354° |
| 2026-05-06 09:27 | 41.25908 | -3.60739 | 39971 ft | 459 kts | 354° |
| 2026-05-06 09:27 | 41.32296 | -3.60901 | 39974 ft | 459 kts | 354° |
| 2026-05-06 09:28 | 41.38683 | -3.61063 | 39974 ft | 459 kts | 354° |
| 2026-05-06 09:28 | 41.45122 | -3.61227 | 39972 ft | 459 kts | 354° |
| 2026-05-06 09:29 | 41.51459 | -3.61370 | 39975 ft | 459 kts | 355° |
| 2026-05-06 09:29 | 41.57902 | -3.61361 | 39976 ft | 460 kts | 355° |
| 2026-05-06 09:30 | 41.64284 | -3.61360 | 39972 ft | 459 kts | 355° |
| 2026-05-06 09:30 | 41.70695 | -3.61360 | 39971 ft | 460 kts | 355° |
| 2026-05-06 09:31 | 41.77091 | -3.61360 | 39971 ft | 460 kts | 355° |
| 2026-05-06 09:31 | 41.83498 | -3.61359 | 39971 ft | 459 kts | 355° |
| 2026-05-06 09:32 | 41.89914 | -3.61359 | 39976 ft | 459 kts | 355° |
| 2026-05-06 09:32 | 41.96318 | -3.61359 | 39974 ft | 458 kts | 356° |
| 2026-05-06 09:33 | 42.02697 | -3.61369 | 39977 ft | 457 kts | 354° |
| 2026-05-06 09:33 | 42.09072 | -3.61799 | 39984 ft | 457 kts | 353° |
| 2026-05-06 09:34 | 42.15366 | -3.62206 | 39980 ft | 458 kts | 353° |
| 2026-05-06 09:34 | 42.21681 | -3.62614 | 39983 ft | 457 kts | 353° |
| 2026-05-06 09:35 | 42.28019 | -3.63023 | 39990 ft | 457 kts | 353° |
| 2026-05-06 09:35 | 42.34356 | -3.63433 | 39989 ft | 456 kts | 353° |
| 2026-05-06 09:36 | 42.40647 | -3.64483 | 39994 ft | 453 kts | 347° |
| 2026-05-06 09:36 | 42.46856 | -3.65718 | 39991 ft | 453 kts | 347° |
| 2026-05-06 09:37 | 42.53107 | -3.66962 | 39990 ft | 453 kts | 348° |
| 2026-05-06 09:37 | 42.59360 | -3.68209 | 39987 ft | 453 kts | 348° |
| 2026-05-06 09:38 | 42.65585 | -3.69452 | 39987 ft | 453 kts | 348° |
| 2026-05-06 09:38 | 42.71830 | -3.70598 | 39983 ft | 453 kts | 349° |
| 2026-05-06 09:39 | 42.78040 | -3.71652 | 39983 ft | 452 kts | 349° |
| 2026-05-06 09:39 | 42.84306 | -3.72722 | 39987 ft | 452 kts | 349° |
| 2026-05-06 09:40 | 42.90559 | -3.73791 | 39985 ft | 452 kts | 349° |
| 2026-05-06 09:40 | 42.99897 | -3.75393 | 39987 ft | 453 kts | 349° |
| 2026-05-06 09:41 | 43.06148 | -3.76467 | 39992 ft | 452 kts | 349° |
| 2026-05-06 09:41 | 43.12390 | -3.77543 | 39995 ft | 452 kts | 349° |
| 2026-05-06 09:42 | 43.18601 | -3.78615 | 39997 ft | 451 kts | 349° |
| 2026-05-06 09:42 | 43.24804 | -3.79688 | 39999 ft | 451 kts | 350° |
| 2026-05-06 09:43 | 43.31067 | -3.80774 | 40006 ft | 452 kts | 349° |
| 2026-05-06 09:43 | 43.37265 | -3.81850 | 40007 ft | 452 kts | 350° |
| 2026-05-06 09:44 | 43.43521 | -3.82940 | 40011 ft | 451 kts | 350° |
| 2026-05-06 09:44 | 43.49742 | -3.84025 | 40009 ft | 451 kts | 350° |
| 2026-05-06 09:45 | 43.55947 | -3.85109 | 40007 ft | 452 kts | 350° |
| 2026-05-06 09:45 | 43.62169 | -3.86199 | 40002 ft | 451 kts | 350° |
| 2026-05-06 09:46 | 43.68374 | -3.87288 | 39995 ft | 451 kts | 350° |
| 2026-05-06 09:46 | 43.74580 | -3.88380 | 39989 ft | 451 kts | 350° |
| 2026-05-06 09:47 | 43.80810 | -3.89478 | 39989 ft | 451 kts | 350° |
| 2026-05-06 09:47 | 43.87025 | -3.90575 | 39985 ft | 451 kts | 350° |
| 2026-05-06 09:48 | 43.93237 | -3.91675 | 39985 ft | 451 kts | 351° |
| 2026-05-06 09:48 | 43.99442 | -3.92776 | 39988 ft | 451 kts | 351° |
| 2026-05-06 09:49 | 44.05644 | -3.93878 | 39988 ft | 451 kts | 351° |
| 2026-05-06 09:49 | 44.11842 | -3.94982 | 39985 ft | 451 kts | 351° |
| 2026-05-06 09:50 | 44.18059 | -3.96091 | 39986 ft | 451 kts | 351° |
| 2026-05-06 09:50 | 44.24259 | -3.97201 | 39986 ft | 451 kts | 351° |
| 2026-05-06 09:51 | 44.30445 | -3.98310 | 39987 ft | 451 kts | 351° |
| 2026-05-06 09:51 | 44.36726 | -3.98234 | 39999 ft | 455 kts | 4° |
| 2026-05-06 09:52 | 44.43000 | -3.97338 | 39986 ft | 454 kts | 4° |
| 2026-05-06 09:52 | 44.49289 | -3.96455 | 39989 ft | 455 kts | 4° |
| 2026-05-06 09:53 | 44.55566 | -3.95572 | 39988 ft | 454 kts | 4° |
| 2026-05-06 09:53 | 44.61810 | -3.94692 | 39983 ft | 453 kts | 4° |
| 2026-05-06 09:54 | 44.68066 | -3.93809 | 39985 ft | 453 kts | 4° |
| 2026-05-06 09:54 | 44.74366 | -3.92917 | 39985 ft | 455 kts | 4° |
| 2026-05-06 09:55 | 44.80642 | -3.92027 | 39985 ft | 455 kts | 4° |
| 2026-05-06 09:55 | 44.86906 | -3.91137 | 39983 ft | 454 kts | 4° |
| 2026-05-06 09:56 | 44.93182 | -3.90243 | 39985 ft | 454 kts | 4° |
| 2026-05-06 09:56 | 44.99455 | -3.89347 | 39980 ft | 453 kts | 4° |
| 2026-05-06 09:57 | 45.05757 | -3.88446 | 39987 ft | 454 kts | 4° |
| 2026-05-06 09:57 | 45.11994 | -3.87552 | 39985 ft | 454 kts | 4° |
| 2026-05-06 09:58 | 45.18256 | -3.86652 | 39984 ft | 454 kts | 4° |
| 2026-05-06 09:58 | 45.24551 | -3.85745 | 39984 ft | 454 kts | 4° |
| 2026-05-06 09:59 | 45.30829 | -3.84839 | 39983 ft | 454 kts | 4° |
| 2026-05-06 09:59 | 45.37098 | -3.83932 | 39984 ft | 454 kts | 4° |
| 2026-05-06 10:00 | 45.43342 | -3.83027 | 39985 ft | 454 kts | 4° |
| 2026-05-06 10:00 | 45.49645 | -3.82111 | 39985 ft | 454 kts | 4° |
| 2026-05-06 10:01 | 45.55919 | -3.81197 | 39979 ft | 453 kts | 4° |
| 2026-05-06 10:01 | 45.62179 | -3.80284 | 39983 ft | 454 kts | 4° |
| 2026-05-06 10:02 | 45.68438 | -3.79368 | 39987 ft | 454 kts | 4° |
| 2026-05-06 10:02 | 45.74712 | -3.78448 | 39977 ft | 454 kts | 4° |
| 2026-05-06 10:03 | 45.80983 | -3.77527 | 39984 ft | 454 kts | 4° |
| 2026-05-06 10:03 | 45.87233 | -3.76606 | 39980 ft | 454 kts | 4° |
| 2026-05-06 10:04 | 45.93515 | -3.75679 | 39978 ft | 453 kts | 4° |
| 2026-05-06 10:04 | 45.99757 | -3.74755 | 39978 ft | 453 kts | 4° |
| 2026-05-06 10:05 | 46.06023 | -3.73826 | 39974 ft | 454 kts | 4° |
| 2026-05-06 10:05 | 46.12275 | -3.72897 | 39971 ft | 454 kts | 5° |
| 2026-05-06 10:06 | 46.18568 | -3.71959 | 39977 ft | 455 kts | 5° |
| 2026-05-06 10:06 | 46.24840 | -3.71023 | 39974 ft | 454 kts | 4° |
| 2026-05-06 10:07 | 46.31149 | -3.70079 | 39979 ft | 454 kts | 4° |
| 2026-05-06 10:07 | 46.37399 | -3.69660 | 39979 ft | 453 kts | 0° |
| 2026-05-06 10:08 | 46.43683 | -3.69384 | 39973 ft | 453 kts | 0° |
| 2026-05-06 10:08 | 46.50010 | -3.69090 | 39984 ft | 454 kts | 0° |
| 2026-05-06 10:09 | 46.56284 | -3.68798 | 39973 ft | 454 kts | 0° |
| 2026-05-06 10:09 | 46.62581 | -3.68503 | 39968 ft | 453 kts | 0° |
| 2026-05-06 10:10 | 46.68888 | -3.68208 | 39964 ft | 453 kts | 1° |
| 2026-05-06 10:10 | 46.75179 | -3.67911 | 39962 ft | 453 kts | 0° |
| 2026-05-06 10:11 | 46.81448 | -3.67617 | 39964 ft | 454 kts | 0° |
| 2026-05-06 10:11 | 46.87779 | -3.67318 | 39960 ft | 453 kts | 0° |
| 2026-05-06 10:12 | 46.94091 | -3.67019 | 39962 ft | 454 kts | 0° |
| 2026-05-06 10:12 | 47.00370 | -3.66721 | 39961 ft | 454 kts | 1° |
| 2026-05-06 10:13 | 47.06698 | -3.66420 | 39964 ft | 454 kts | 1° |
| 2026-05-06 10:13 | 47.13020 | -3.66119 | 39966 ft | 454 kts | 1° |
| 2026-05-06 10:14 | 47.19309 | -3.65819 | 39963 ft | 453 kts | 1° |
| 2026-05-06 10:14 | 47.25588 | -3.65518 | 39961 ft | 453 kts | 0° |
| 2026-05-06 10:15 | 47.31895 | -3.65215 | 39963 ft | 453 kts | 0° |
| 2026-05-06 10:15 | 47.38199 | -3.64912 | 39967 ft | 454 kts | 1° |
| 2026-05-06 10:16 | 47.44510 | -3.64607 | 39966 ft | 453 kts | 1° |
| 2026-05-06 10:16 | 47.50806 | -3.64303 | 39965 ft | 454 kts | 1° |
| 2026-05-06 10:17 | 47.57070 | -3.63999 | 39965 ft | 453 kts | 1° |
| 2026-05-06 10:17 | 47.63405 | -3.63691 | 39967 ft | 453 kts | 1° |
| 2026-05-06 10:18 | 47.69677 | -3.63386 | 39966 ft | 453 kts | 1° |
| 2026-05-06 10:18 | 47.76014 | -3.63077 | 39962 ft | 454 kts | 1° |
| 2026-05-06 10:19 | 47.82296 | -3.62769 | 39962 ft | 453 kts | 1° |
| 2026-05-06 10:19 | 47.88573 | -3.62461 | 39963 ft | 453 kts | 1° |
| 2026-05-06 10:20 | 47.94888 | -3.62151 | 39959 ft | 454 kts | 1° |
| 2026-05-06 10:20 | 48.01202 | -3.61840 | 39962 ft | 454 kts | 1° |
| 2026-05-06 10:21 | 48.07500 | -3.61529 | 39958 ft | 454 kts | 1° |
| 2026-05-06 10:21 | 48.13788 | -3.61217 | 39960 ft | 453 kts | 1° |
| 2026-05-06 10:22 | 48.20073 | -3.60905 | 39956 ft | 453 kts | 1° |
| 2026-05-06 10:22 | 48.26407 | -3.60589 | 39950 ft | 453 kts | 1° |
| 2026-05-06 10:23 | 48.32671 | -3.60204 | 39952 ft | 454 kts | 5° |
| 2026-05-06 10:23 | 48.38884 | -3.58176 | 39962 ft | 455 kts | 13° |
| 2026-05-06 10:24 | 48.44992 | -3.55908 | 39954 ft | 446 kts | 12° |
| 2026-05-06 10:24 | 48.50917 | -3.53707 | 39956 ft | 435 kts | 12° |
| 2026-05-06 10:25 | 48.56788 | -3.51520 | 39584 ft | 442 kts | 12° |
| 2026-05-06 10:25 | 48.59767 | -3.50408 | 39109 ft | 440 kts | 13° |
| 2026-05-06 10:25 | 48.62721 | -3.49305 | 38631 ft | 436 kts | 13° |
| 2026-05-06 10:26 | 48.65649 | -3.48210 | 38157 ft | 432 kts | 13° |
| 2026-05-06 10:26 | 48.68578 | -3.47113 | 37672 ft | 429 kts | 13° |
| 2026-05-06 10:26 | 48.71423 | -3.46046 | 37219 ft | 427 kts | 12° |
| 2026-05-06 10:26 | 48.74308 | -3.44963 | 36744 ft | 426 kts | 12° |
| 2026-05-06 10:27 | 48.77193 | -3.43879 | 36284 ft | 426 kts | 13° |
| 2026-05-06 10:27 | 48.80054 | -3.42803 | 35907 ft | 427 kts | 12° |
| 2026-05-06 10:27 | 48.82899 | -3.41731 | 35446 ft | 427 kts | 12° |
| 2026-05-06 10:27 | 48.85764 | -3.40651 | 34959 ft | 425 kts | 12° |
| 2026-05-06 10:28 | 48.88593 | -3.39582 | 34374 ft | 417 kts | 12° |
| 2026-05-06 10:28 | 48.91394 | -3.38523 | 33907 ft | 416 kts | 12° |
| 2026-05-06 10:28 | 48.94213 | -3.37457 | 33448 ft | 422 kts | 12° |
| 2026-05-06 10:28 | 48.97073 | -3.36373 | 32975 ft | 426 kts | 12° |
| 2026-05-06 10:29 | 48.99966 | -3.35276 | 32501 ft | 428 kts | 12° |
| 2026-05-06 10:29 | 49.02824 | -3.34190 | 32030 ft | 429 kts | 13° |
| 2026-05-06 10:29 | 49.05741 | -3.33081 | 31552 ft | 431 kts | 13° |
| 2026-05-06 10:29 | 49.08657 | -3.31971 | 31073 ft | 432 kts | 13° |
| 2026-05-06 10:30 | 49.11555 | -3.30866 | 30589 ft | 430 kts | 13° |
| 2026-05-06 10:30 | 49.14431 | -3.29769 | 30116 ft | 427 kts | 13° |
| 2026-05-06 10:30 | 49.17309 | -3.28669 | 29643 ft | 424 kts | 13° |
| 2026-05-06 10:30 | 49.20161 | -3.27578 | 29177 ft | 421 kts | 13° |
| 2026-05-06 10:31 | 49.22980 | -3.26498 | 28714 ft | 418 kts | 13° |
| 2026-05-06 10:31 | 49.25776 | -3.25426 | 28253 ft | 415 kts | 13° |
| 2026-05-06 10:31 | 49.28567 | -3.24355 | 27794 ft | 412 kts | 13° |
| 2026-05-06 10:31 | 49.31329 | -3.23293 | 27340 ft | 409 kts | 13° |
| 2026-05-06 10:32 | 49.34060 | -3.22242 | 26893 ft | 406 kts | 13° |
| 2026-05-06 10:32 | 49.36728 | -3.21215 | 26455 ft | 404 kts | 13° |
| 2026-05-06 10:32 | 49.39415 | -3.20178 | 26012 ft | 401 kts | 13° |
| 2026-05-06 10:32 | 49.42107 | -3.19139 | 25572 ft | 399 kts | 13° |
| 2026-05-06 10:33 | 49.44803 | -3.18097 | 25131 ft | 397 kts | 13° |
| 2026-05-06 10:33 | 49.47446 | -3.17074 | 24698 ft | 395 kts | 13° |
| 2026-05-06 10:33 | 49.50095 | -3.16048 | 24261 ft | 392 kts | 13° |
| 2026-05-06 10:33 | 49.52749 | -3.15019 | 23827 ft | 390 kts | 13° |
| 2026-05-06 10:34 | 49.55342 | -3.14012 | 23402 ft | 387 kts | 13° |
| 2026-05-06 10:34 | 49.57954 | -3.12997 | 22979 ft | 386 kts | 13° |
| 2026-05-06 10:34 | 49.60552 | -3.11986 | 22550 ft | 383 kts | 13° |
| 2026-05-06 10:34 | 49.63105 | -3.10992 | 22132 ft | 381 kts | 13° |
| 2026-05-06 10:35 | 49.65663 | -3.09994 | 21715 ft | 379 kts | 13° |
| 2026-05-06 10:35 | 49.68206 | -3.09002 | 21302 ft | 376 kts | 13° |
| 2026-05-06 10:35 | 49.70731 | -3.08015 | 20889 ft | 374 kts | 13° |
| 2026-05-06 10:35 | 49.73221 | -3.07041 | 20479 ft | 371 kts | 13° |
| 2026-05-06 10:36 | 49.75705 | -3.06068 | 20071 ft | 368 kts | 13° |
| 2026-05-06 10:36 | 49.78185 | -3.05107 | 19665 ft | 366 kts | 11° |
| 2026-05-06 10:36 | 49.80673 | -3.05101 | 19280 ft | 361 kts | 345° |
| 2026-05-06 10:36 | 49.82923 | -3.06732 | 18803 ft | 363 kts | 323° |
| 2026-05-06 10:37 | 49.84539 | -3.09665 | 18281 ft | 355 kts | 300° |
| 2026-05-06 10:37 | 49.85726 | -3.12963 | 17871 ft | 353 kts | 298° |
| 2026-05-06 10:37 | 49.86985 | -3.16216 | 17463 ft | 351 kts | 311° |
| 2026-05-06 10:37 | 49.88874 | -3.18508 | 17095 ft | 351 kts | 330° |
| 2026-05-06 10:38 | 49.91038 | -3.20289 | 16686 ft | 349 kts | 332° |
| 2026-05-06 10:38 | 49.93168 | -3.22004 | 16293 ft | 347 kts | 332° |
| 2026-05-06 10:38 | 49.95300 | -3.23711 | 15913 ft | 344 kts | 332° |
| 2026-05-06 10:38 | 49.97443 | -3.25425 | 15531 ft | 343 kts | 333° |
| 2026-05-06 10:39 | 49.99532 | -3.27095 | 15161 ft | 341 kts | 333° |
| 2026-05-06 10:39 | 50.01637 | -3.28778 | 14783 ft | 340 kts | 333° |
| 2026-05-06 10:39 | 50.03735 | -3.30458 | 14407 ft | 338 kts | 333° |
| 2026-05-06 10:39 | 50.05828 | -3.32135 | 14034 ft | 337 kts | 333° |
| 2026-05-06 10:40 | 50.07879 | -3.33780 | 13667 ft | 335 kts | 333° |
| 2026-05-06 10:40 | 50.09938 | -3.35434 | 13297 ft | 333 kts | 333° |
| 2026-05-06 10:40 | 50.11985 | -3.37080 | 12932 ft | 330 kts | 333° |
| 2026-05-06 10:40 | 50.14015 | -3.38713 | 12570 ft | 328 kts | 333° |
| 2026-05-06 10:41 | 50.16050 | -3.40351 | 12209 ft | 326 kts | 333° |
| 2026-05-06 10:41 | 50.18060 | -3.41971 | 11847 ft | 324 kts | 333° |
| 2026-05-06 10:41 | 50.20043 | -3.43571 | 11488 ft | 318 kts | 333° |
| 2026-05-06 10:41 | 50.22011 | -3.45160 | 11124 ft | 311 kts | 333° |
| 2026-05-06 10:42 | 50.23897 | -3.46685 | 10787 ft | 303 kts | 333° |
| 2026-05-06 10:42 | 50.25751 | -3.48185 | 10452 ft | 295 kts | 333° |
| 2026-05-06 10:42 | 50.27569 | -3.49577 | 10122 ft | 288 kts | 342° |
| 2026-05-06 10:42 | 50.29543 | -3.49886 | 9828 ft | 282 kts | 1° |
| 2026-05-06 10:43 | 50.31498 | -3.49807 | 9505 ft | 280 kts | 1° |
| 2026-05-06 10:43 | 50.33436 | -3.49713 | 9195 ft | 279 kts | 2° |
| 2026-05-06 10:43 | 50.35368 | -3.49612 | 8886 ft | 277 kts | 2° |
| 2026-05-06 10:44 | 50.39231 | -3.49440 | 8266 ft | 275 kts | 355° |
| 2026-05-06 10:44 | 50.41002 | -3.50359 | 7987 ft | 274 kts | 333° |
| 2026-05-06 10:44 | 50.42695 | -3.51743 | 7668 ft | 273 kts | 333° |
| 2026-05-06 10:44 | 50.44376 | -3.53133 | 7360 ft | 272 kts | 333° |
| 2026-05-06 10:45 | 50.46051 | -3.54526 | 7057 ft | 271 kts | 333° |
| 2026-05-06 10:45 | 50.47696 | -3.55898 | 6759 ft | 270 kts | 333° |
| 2026-05-06 10:45 | 50.49367 | -3.57292 | 6457 ft | 268 kts | 333° |
| 2026-05-06 10:45 | 50.50999 | -3.58657 | 6164 ft | 268 kts | 333° |
| 2026-05-06 10:46 | 50.52651 | -3.60039 | 5864 ft | 267 kts | 333° |
| 2026-05-06 10:46 | 50.54290 | -3.61412 | 5572 ft | 266 kts | 333° |
| 2026-05-06 10:46 | 50.55913 | -3.62773 | 5274 ft | 265 kts | 333° |
| 2026-05-06 10:46 | 50.57523 | -3.64123 | 4987 ft | 264 kts | 333° |
| 2026-05-06 10:47 | 50.59155 | -3.65493 | 4693 ft | 263 kts | 333° |
| 2026-05-06 10:47 | 50.60710 | -3.66799 | 4411 ft | 263 kts | 333° |
| 2026-05-06 10:47 | 50.62306 | -3.68141 | 4128 ft | 261 kts | 333° |
| 2026-05-06 10:47 | 50.63886 | -3.69271 | 3843 ft | 236 kts | 352° |
| 2026-05-06 10:48 | 50.65407 | -3.68899 | 3645 ft | 213 kts | 27° |
| 2026-05-06 10:48 | 50.66669 | -3.67740 | 3383 ft | 207 kts | 33° |
| 2026-05-06 10:48 | 50.67835 | -3.66531 | 3123 ft | 196 kts | 35° |
| 2026-05-06 10:48 | 50.68913 | -3.65353 | 2981 ft | 180 kts | 36° |
| 2026-05-06 10:49 | 50.69719 | -3.64057 | 2787 ft | 164 kts | 64° |
| 2026-05-06 10:49 | 50.70116 | -3.62409 | 2492 ft | 157 kts | 73° |
| 2026-05-06 10:49 | 50.70373 | -3.60761 | 2191 ft | 153 kts | 75° |
| 2026-05-06 10:49 | 50.70622 | -3.59173 | 1905 ft | 149 kts | 75° |
| 2026-05-06 10:50 | 50.70866 | -3.57623 | 1620 ft | 141 kts | 75° |
| 2026-05-06 10:50 | 50.71085 | -3.56190 | 1337 ft | 127 kts | 77° |
| 2026-05-06 10:50 | 50.71241 | -3.54885 | 1050 ft | 117 kts | 80° |
| 2026-05-06 10:50 | 50.71359 | -3.53642 | 702 ft | 116 kts | 81° |
| 2026-05-06 10:51 | 50.71488 | -3.52420 | 610 ft | 110 kts | 71° |
| 2026-05-06 10:51 | 50.71740 | -3.51260 | 810 ft | 112 kts | 71° |
| 2026-05-06 10:51 | 50.71981 | -3.50101 | 982 ft | 116 kts | 72° |
| 2026-05-06 10:51 | 50.72219 | -3.48864 | 951 ft | 118 kts | 73° |
| 2026-05-06 10:52 | 50.72439 | -3.47635 | 743 ft | 116 kts | 74° |
| 2026-05-06 10:52 | 50.72653 | -3.46421 | 559 ft | 116 kts | 74° |
| 2026-05-06 10:52 | 50.72840 | -3.45184 | 464 ft | 116 kts | 75° |
| 2026-05-06 10:52 | 50.73035 | -3.43940 | 306 ft | 117 kts | 76° |
| 2026-05-06 10:53 | 50.73225 | -3.42693 | 110 ft | 117 kts | 75° |
| 2026-05-06 10:53 | 50.73387 | -3.41652 | 89 ft | 68 kts | 75° |
| 2026-05-06 10:53 | 50.73499 | -3.40949 | 93 ft | 62 kts | 76° |
| 2026-05-06 10:53 | 50.73591 | -3.40359 | 99 ft | 34 kts | 76° |
| 2026-05-06 10:54 | 50.73624 | -3.40052 | 101 ft | 27 kts | 100° |
| 2026-05-06 10:54 | 50.73645 | -3.39992 | 101 ft | 8 kts | 276° |
| 2026-05-06 10:54 | 50.73627 | -3.40120 | 101 ft | 16 kts | 256° |
| 2026-05-06 10:54 | 50.73593 | -3.40343 | 99 ft | 24 kts | 257° |
| 2026-05-06 10:55 | 50.73544 | -3.40647 | 96 ft | 32 kts | 256° |
| 2026-05-06 10:55 | 50.73489 | -3.41008 | 92 ft | 25 kts | 251° |
| 2026-05-06 10:55 | 50.73414 | -3.41057 | 92 ft | 11 kts | 172° |
| 2026-05-06 10:55 | 50.73337 | -3.41045 | 93 ft | 10 kts | 179° |
| 2026-05-06 10:56 | 50.73267 | -3.41062 | 95 ft | 9 kts | 202° |
| 2026-05-06 10:56 | 50.73216 | -3.41116 | 95 ft | 3 kts | 181° |
| 2026-05-06 10:56 | 50.73203 | -3.41090 | 97 ft | 5 kts | 111° |
| 2026-05-06 10:56 | 50.73195 | -3.41054 | 99 ft | 0 kts | 110° |